createdAt,value
2023-05-22T00:00:17.421Z,19.78
2023-05-22T00:02:49.240Z,19.67
2023-05-22T00:05:20.860Z,19.66
2023-05-22T00:07:52.812Z,19.64
2023-05-22T00:10:24.349Z,19.58
2023-05-22T00:12:56.137Z,19.60
2023-05-22T00:15:27.654Z,19.61
2023-05-22T00:17:59.491Z,19.57
2023-05-22T00:20:30.992Z,19.61
2023-05-22T00:23:03.045Z,19.57
2023-05-22T00:25:34.858Z,19.55
2023-05-22T00:28:06.679Z,19.51
2023-05-22T00:30:38.593Z,19.50
2023-05-22T00:33:10.333Z,19.44
2023-05-22T00:35:42.153Z,19.43
2023-05-22T00:38:13.658Z,19.38
2023-05-22T00:40:45.493Z,19.32
2023-05-22T00:43:16.989Z,19.34
2023-05-22T00:45:48.913Z,19.32
2023-05-22T00:48:20.407Z,19.32
2023-05-22T00:50:52.264Z,19.26
2023-05-22T00:53:23.784Z,19.20
2023-05-22T00:55:55.740Z,19.23
2023-05-22T00:58:27.615Z,19.19
2023-05-22T01:00:59.399Z,19.18
2023-05-22T01:03:31.017Z,19.12
2023-05-22T01:06:02.570Z,19.10
2023-05-22T01:08:34.497Z,19.09
2023-05-22T01:11:05.995Z,19.06
2023-05-22T01:13:37.841Z,19.01
2023-05-22T01:16:09.363Z,18.98
2023-05-22T01:18:41.038Z,18.96
2023-05-22T01:21:12.538Z,18.85
2023-05-22T01:23:44.390Z,18.82
2023-05-22T01:26:15.885Z,18.78
2023-05-22T01:28:47.702Z,18.71
2023-05-22T01:31:19.555Z,18.68
2023-05-22T01:33:51.520Z,18.62
2023-05-22T01:36:23.558Z,18.54
2023-05-22T01:38:55.102Z,18.54
2023-05-22T01:41:26.871Z,18.49
2023-05-22T01:43:58.373Z,18.46
2023-05-22T01:46:29.919Z,18.42
2023-05-22T01:49:01.438Z,18.40
2023-05-22T01:51:33.278Z,18.40
2023-05-22T01:54:04.845Z,18.32
2023-05-22T01:56:36.342Z,18.31
2023-05-22T01:59:07.841Z,18.23
2023-05-22T02:01:39.390Z,18.21
2023-05-22T02:04:11.227Z,18.21
2023-05-22T02:06:42.997Z,18.12
2023-05-22T02:09:14.528Z,18.11
2023-05-22T02:11:46.012Z,18.07
2023-05-22T02:14:17.797Z,18.02
2023-05-22T02:16:49.331Z,18.01
2023-05-22T02:19:21.139Z,17.95
2023-05-22T02:21:52.661Z,17.88
2023-05-22T02:24:24.335Z,17.78
2023-05-22T02:26:55.810Z,17.69
2023-05-22T02:29:27.485Z,17.65
2023-05-22T02:31:58.973Z,17.60
2023-05-22T02:34:30.835Z,16.38
2023-05-22T02:37:02.327Z,17.47
2023-05-22T02:39:33.838Z,17.44
2023-05-22T02:42:05.647Z,17.42
2023-05-22T02:44:37.137Z,17.37
2023-05-22T02:47:08.979Z,17.39
2023-05-22T02:49:40.464Z,17.37
2023-05-22T02:52:12.339Z,17.37
2023-05-22T02:54:43.815Z,17.35
2023-05-22T02:57:15.349Z,17.35
2023-05-22T02:59:46.847Z,17.31
2023-05-22T03:02:18.349Z,17.24
2023-05-22T03:04:49.883Z,17.23
2023-05-22T03:07:21.425Z,17.24
2023-05-22T03:09:52.916Z,17.23
2023-05-22T03:12:24.415Z,17.21
2023-05-22T03:14:56.363Z,17.20
2023-05-22T03:17:27.894Z,17.24
2023-05-22T03:19:59.443Z,17.18
2023-05-22T03:22:30.943Z,17.13
2023-05-22T03:25:02.439Z,17.12
2023-05-22T03:27:33.931Z,17.10
2023-05-22T03:30:05.755Z,17.06
2023-05-22T03:32:37.331Z,17.09
2023-05-22T03:35:09.292Z,17.11
2023-05-22T03:37:40.819Z,17.13
2023-05-22T03:40:12.359Z,17.13
2023-05-22T03:42:43.834Z,17.16
2023-05-22T03:45:15.334Z,17.24
2023-05-22T03:47:47.128Z,17.34
2023-05-22T03:50:18.626Z,17.35
2023-05-22T03:52:50.449Z,17.45
2023-05-22T03:55:21.956Z,17.47
2023-05-22T03:57:53.700Z,17.57
2023-05-22T04:00:26.378Z,17.57
2023-05-22T04:02:58.956Z,17.60
2023-05-22T04:05:30.738Z,17.72
2023-05-22T04:08:02.474Z,17.85
2023-05-22T04:10:33.965Z,17.84
2023-05-22T04:13:05.796Z,18.01
2023-05-22T04:15:37.314Z,18.12
2023-05-22T04:18:09.180Z,18.21
2023-05-22T04:20:40.981Z,18.29
2023-05-22T04:23:12.689Z,18.40
2023-05-22T04:25:44.520Z,18.64
2023-05-22T04:28:16.009Z,18.66
2023-05-22T04:30:48.023Z,18.69
2023-05-22T04:33:19.563Z,18.74
2023-05-22T04:35:51.377Z,18.72
2023-05-22T04:38:22.858Z,18.77
2023-05-22T04:40:54.553Z,18.62
2023-05-22T04:43:26.039Z,18.96
2023-05-22T04:45:57.761Z,18.98
2023-05-22T04:48:29.587Z,19.18
2023-05-22T04:51:01.387Z,19.27
2023-05-22T04:53:33.187Z,19.60
2023-05-22T04:56:04.674Z,19.69
2023-05-22T04:58:36.183Z,19.42
2023-05-22T05:01:07.672Z,19.44
2023-05-22T05:03:39.271Z,19.30
2023-05-22T05:06:10.786Z,19.31
2023-05-22T05:08:42.340Z,19.26
2023-05-22T05:11:13.964Z,19.45
2023-05-22T05:13:46.476Z,19.56
2023-05-22T05:16:18.055Z,19.56
2023-05-22T05:18:49.978Z,19.66
2023-05-22T05:21:21.827Z,19.37
2023-05-22T05:23:53.678Z,19.58
2023-05-22T05:26:25.190Z,19.62
2023-05-22T05:28:56.800Z,19.54
2023-05-22T05:31:28.758Z,19.66
2023-05-22T05:34:00.251Z,19.79
2023-05-22T05:36:32.077Z,19.71
2023-05-22T05:39:03.569Z,19.61
2023-05-22T05:41:35.094Z,19.40
2023-05-22T05:44:06.625Z,19.63
2023-05-22T05:46:38.146Z,19.78
2023-05-22T05:49:09.728Z,19.95
2023-05-22T05:51:41.227Z,19.82
2023-05-22T05:54:13.250Z,19.94
2023-05-22T05:56:44.815Z,20.06
2023-05-22T05:59:16.613Z,20.25
2023-05-22T06:01:48.126Z,20.96
2023-05-22T06:04:19.650Z,21.35
2023-05-22T06:06:51.152Z,21.39
2023-05-22T06:09:22.996Z,21.28
2023-05-22T06:11:54.481Z,21.22
2023-05-22T06:14:26.281Z,21.11
2023-05-22T06:16:57.916Z,20.74
2023-05-22T06:19:29.965Z,21.20
2023-05-22T06:22:01.505Z,21.53
2023-05-22T06:24:33.505Z,21.54
2023-05-22T06:27:05.022Z,21.81
2023-05-22T06:29:36.539Z,22.03
2023-05-22T06:32:08.417Z,22.32
2023-05-22T06:34:39.991Z,22.14
2023-05-22T06:37:11.863Z,22.31
2023-05-22T06:39:43.368Z,22.52
2023-05-22T06:42:15.239Z,22.44
2023-05-22T06:44:46.742Z,22.12
2023-05-22T06:47:18.399Z,22.16
2023-05-22T06:49:49.887Z,22.48
2023-05-22T06:52:21.697Z,22.15
2023-05-22T06:54:53.200Z,22.38
2023-05-22T06:57:24.707Z,22.85
2023-05-22T06:59:56.397Z,23.52
2023-05-22T07:02:27.951Z,23.28
2023-05-22T07:04:59.528Z,23.56
2023-05-22T07:07:31.028Z,23.29
2023-05-22T07:10:02.860Z,23.25
2023-05-22T07:12:34.381Z,23.45
2023-05-22T07:15:05.904Z,23.41
2023-05-22T07:17:37.471Z,23.62
2023-05-22T07:20:09.050Z,23.71
2023-05-22T07:22:40.529Z,23.74
2023-05-22T07:25:12.061Z,23.63
2023-05-22T07:27:43.556Z,23.80
2023-05-22T07:30:15.056Z,24.40
2023-05-22T07:32:46.603Z,24.53
2023-05-22T07:35:18.127Z,25.36
2023-05-22T07:37:49.668Z,24.75
2023-05-22T07:40:21.156Z,24.64
2023-05-22T07:42:53.045Z,25.18
2023-05-22T07:45:24.528Z,25.37
2023-05-22T07:47:56.501Z,25.47
2023-05-22T07:50:28.031Z,25.96
2023-05-22T07:52:59.541Z,25.82
2023-05-22T07:55:31.052Z,25.85
2023-05-22T07:58:02.581Z,26.00
2023-05-22T08:00:34.110Z,26.17
2023-05-22T08:03:05.992Z,26.33
2023-05-22T08:05:37.672Z,26.46
2023-05-22T08:08:09.245Z,26.42
2023-05-22T08:11:01.981Z,26.20
2023-05-22T08:13:32.308Z,26.22
2023-05-22T08:16:04.413Z,26.51
2023-05-22T08:18:35.894Z,26.94
2023-05-22T08:21:07.820Z,27.07
2023-05-22T08:23:39.367Z,27.67
2023-05-22T08:26:11.148Z,28.07
2023-05-22T08:28:42.937Z,27.66
2023-05-22T08:31:14.496Z,27.56
2023-05-22T08:33:46.365Z,27.96
2023-05-22T08:36:17.867Z,27.94
2023-05-22T08:38:49.962Z,27.91
2023-05-22T08:41:21.472Z,28.07
2023-05-22T08:43:52.974Z,28.30
2023-05-22T08:46:24.502Z,27.98
2023-05-22T08:48:56.326Z,28.04
2023-05-22T08:51:27.825Z,28.17
2023-05-22T08:53:59.349Z,27.53
2023-05-22T08:56:32.088Z,27.57
2023-05-22T08:59:04.894Z,27.86
2023-05-22T09:01:36.436Z,27.94
2023-05-22T09:04:08.074Z,28.20
2023-05-22T09:06:39.646Z,28.88
2023-05-22T09:09:11.136Z,29.34
2023-05-22T09:11:42.962Z,29.36
2023-05-22T09:14:14.449Z,29.65
2023-05-22T09:16:45.998Z,28.90
2023-05-22T09:19:17.595Z,28.48
2023-05-22T09:21:49.450Z,28.85
2023-05-22T09:24:20.956Z,29.20
2023-05-22T09:26:52.877Z,29.63
2023-05-22T09:29:24.745Z,29.86
2023-05-22T09:31:56.310Z,30.02
2023-05-22T09:34:28.198Z,29.43
2023-05-22T09:36:59.709Z,29.16
2023-05-22T09:39:31.602Z,28.92
2023-05-22T09:42:03.075Z,29.06
2023-05-22T09:44:34.656Z,29.20
2023-05-22T09:47:06.150Z,29.19
2023-05-22T09:49:37.657Z,29.54
2023-05-22T09:52:09.133Z,29.53
2023-05-22T09:54:40.632Z,29.79
2023-05-22T09:57:12.523Z,29.40
2023-05-22T09:59:44.185Z,30.02
2023-05-22T10:02:15.904Z,30.59
2023-05-22T10:04:47.577Z,30.13
2023-05-22T10:07:19.231Z,29.83
2023-05-22T10:09:50.722Z,29.74
2023-05-22T10:12:22.230Z,30.03
2023-05-22T10:14:53.720Z,29.59
2023-05-22T10:17:25.265Z,29.13
2023-05-22T10:19:56.802Z,29.48
2023-05-22T10:22:28.579Z,29.49
2023-05-22T10:25:00.103Z,29.12
2023-05-22T10:27:31.993Z,30.14
2023-05-22T10:30:03.860Z,30.46
2023-05-22T10:32:35.566Z,30.37
2023-05-22T10:35:07.506Z,31.23
2023-05-22T10:37:38.976Z,31.65
2023-05-22T10:40:10.813Z,31.94
2023-05-22T10:42:42.311Z,31.57
2023-05-22T10:45:14.172Z,31.33
2023-05-22T10:47:45.735Z,31.39
2023-05-22T10:50:17.660Z,31.09
2023-05-22T10:52:49.163Z,30.85
2023-05-22T10:55:20.979Z,31.05
2023-05-22T10:57:52.861Z,31.03
2023-05-22T11:00:24.741Z,31.00
2023-05-22T11:03:00.790Z,31.71
2023-05-22T11:05:37.867Z,32.01
2023-05-22T11:08:09.730Z,32.40
2023-05-22T11:10:41.420Z,31.42
2023-05-22T11:13:13.404Z,30.40
2023-05-22T11:15:44.885Z,30.67
2023-05-22T11:18:16.977Z,30.61
2023-05-22T11:20:48.538Z,29.84
2023-05-22T11:23:20.557Z,30.23
2023-05-22T11:25:52.083Z,30.49
2023-05-22T11:28:23.629Z,30.30
2023-05-22T11:30:55.149Z,30.28
2023-05-22T11:33:26.683Z,30.40
2023-05-22T11:35:58.491Z,29.97
2023-05-22T11:38:30.029Z,29.98
2023-05-22T11:41:01.826Z,30.04
2023-05-22T11:43:33.660Z,29.57
2023-05-22T11:46:05.224Z,29.97
2023-05-22T11:48:36.772Z,29.95
2023-05-22T11:51:08.303Z,29.72
2023-05-22T11:53:39.854Z,29.38
2023-05-22T11:56:11.378Z,29.23
2023-05-22T11:58:43.215Z,29.40
2023-05-22T12:01:15.359Z,29.29
2023-05-22T12:03:47.198Z,29.45
2023-05-22T12:06:19.129Z,30.31
2023-05-22T12:08:50.657Z,29.84
2023-05-22T12:11:22.362Z,29.67
2023-05-22T12:13:53.875Z,30.00
2023-05-22T12:16:25.782Z,30.67
2023-05-22T12:18:57.344Z,31.23
2023-05-22T12:21:28.906Z,31.31
2023-05-22T12:24:00.443Z,30.95
2023-05-22T12:26:32.303Z,31.26
2023-05-22T12:29:04.288Z,31.50
2023-05-22T12:31:35.899Z,30.71
2023-05-22T12:34:07.876Z,29.77
2023-05-22T12:36:39.447Z,29.67
2023-05-22T12:39:11.160Z,29.32
2023-05-22T12:41:42.951Z,29.47
2023-05-22T12:44:14.693Z,30.57
2023-05-22T12:46:46.288Z,31.51
2023-05-22T12:49:18.222Z,32.19
2023-05-22T12:51:49.747Z,31.95
2023-05-22T12:54:21.624Z,32.42
2023-05-22T12:56:53.510Z,31.99
2023-05-22T12:59:25.380Z,32.10
2023-05-22T13:01:57.266Z,32.03
2023-05-22T13:04:28.915Z,32.38
2023-05-22T13:07:00.830Z,32.38
2023-05-22T13:09:32.326Z,32.25
2023-05-22T13:12:04.432Z,32.34
2023-05-22T13:14:35.959Z,32.76
2023-05-22T13:17:08.033Z,32.47
2023-05-22T13:19:39.616Z,32.40
2023-05-22T13:22:11.720Z,32.01
2023-05-22T13:24:43.805Z,31.62
2023-05-22T13:27:15.828Z,31.99
2023-05-22T13:29:47.691Z,32.68
2023-05-22T13:32:19.186Z,32.71
2023-05-22T13:34:51.287Z,33.15
2023-05-22T13:37:23.034Z,33.11
2023-05-22T13:39:54.571Z,33.24
2023-05-22T13:42:26.316Z,32.64
2023-05-22T13:44:57.803Z,33.13
2023-05-22T13:47:29.723Z,34.00
2023-05-22T13:50:01.228Z,33.09
2023-05-22T13:52:33.095Z,33.01
2023-05-22T13:55:04.635Z,32.54
2023-05-22T13:57:36.143Z,31.86
2023-05-22T14:00:07.854Z,32.33
2023-05-22T14:02:39.475Z,31.76
2023-05-22T14:05:11.348Z,31.14
2023-05-22T14:07:42.848Z,31.20
2023-05-22T14:10:14.749Z,31.60
2023-05-22T14:12:46.242Z,31.26
2023-05-22T14:15:18.543Z,31.38
2023-05-22T14:17:50.093Z,31.59
2023-05-22T14:20:21.614Z,30.91
2023-05-22T14:22:57.794Z,30.58
2023-05-22T14:25:30.171Z,31.15
2023-05-22T14:28:02.128Z,31.57
2023-05-22T14:30:33.756Z,32.61
2023-05-22T14:33:05.667Z,32.40
2023-05-22T14:35:37.227Z,32.33
2023-05-22T14:38:09.097Z,32.19
2023-05-22T14:40:40.602Z,32.35
2023-05-22T14:43:12.543Z,32.67
2023-05-22T14:45:44.061Z,33.23
2023-05-22T14:48:15.835Z,33.19
2023-05-22T14:50:47.576Z,32.76
2023-05-22T14:53:19.199Z,32.29
2023-05-22T14:55:50.891Z,32.33
2023-05-22T14:58:22.387Z,32.74
2023-05-22T15:00:54.303Z,32.68
2023-05-22T15:03:25.803Z,32.42
2023-05-22T15:05:57.563Z,32.04
2023-05-22T15:08:29.053Z,32.09
2023-05-22T15:11:00.964Z,32.45
2023-05-22T15:13:32.457Z,32.02
2023-05-22T15:16:04.495Z,32.41
2023-05-22T15:18:35.990Z,31.82
2023-05-22T15:21:08.057Z,31.91
2023-05-22T15:23:39.573Z,31.56
2023-05-22T15:26:11.430Z,31.82
2023-05-22T15:28:43.189Z,31.47
2023-05-22T15:31:14.709Z,31.76
2023-05-22T15:33:46.549Z,31.61
2023-05-22T15:36:18.030Z,31.53
2023-05-22T15:38:49.896Z,31.46
2023-05-22T15:41:21.380Z,31.46
2023-05-22T15:43:52.892Z,31.45
2023-05-22T15:46:24.448Z,31.22
2023-05-22T15:48:55.985Z,30.87
2023-05-22T15:51:27.475Z,31.08
2023-05-22T15:53:58.976Z,30.77
2023-05-22T15:56:30.797Z,30.32
2023-05-22T15:59:02.626Z,29.99
2023-05-22T16:01:34.201Z,29.16
2023-05-22T16:04:05.736Z,29.19
2023-05-22T16:06:37.232Z,28.74
2023-05-22T16:09:08.721Z,28.62
2023-05-22T16:11:40.229Z,28.77
2023-05-22T16:14:11.726Z,28.86
2023-05-22T16:16:43.625Z,28.71
2023-05-22T16:19:15.217Z,28.61
2023-05-22T16:21:46.831Z,28.69
2023-05-22T16:24:18.855Z,28.60
2023-05-22T16:26:50.662Z,28.33
2023-05-22T16:29:22.432Z,28.57
2023-05-22T16:31:54.037Z,28.30
2023-05-22T16:34:25.758Z,28.45
2023-05-22T16:36:57.258Z,28.13
2023-05-22T16:39:29.128Z,28.08
2023-05-22T16:42:00.613Z,28.15
2023-05-22T16:44:32.449Z,28.19
2023-05-22T16:47:04.047Z,28.12
2023-05-22T16:49:35.654Z,27.62
2023-05-22T16:52:07.554Z,27.47
2023-05-22T16:54:39.090Z,27.45
2023-05-22T16:57:10.895Z,27.60
2023-05-22T16:59:42.387Z,27.47
2023-05-22T17:02:14.025Z,27.39
2023-05-22T17:04:45.507Z,27.43
2023-05-22T17:07:17.553Z,27.08
2023-05-22T17:09:49.073Z,27.00
2023-05-22T17:12:20.762Z,26.94
2023-05-22T17:14:52.264Z,26.97
2023-05-22T17:17:25.972Z,27.11
2023-05-22T17:19:57.482Z,26.94
2023-05-22T17:22:29.447Z,26.99
2023-05-22T17:25:01.257Z,26.83
2023-05-22T17:27:36.102Z,26.80
2023-05-22T17:30:08.715Z,26.72
2023-05-22T17:32:40.322Z,26.64
2023-05-22T17:35:12.265Z,26.62
2023-05-22T17:37:43.768Z,26.60
2023-05-22T17:40:15.536Z,26.47
2023-05-22T17:42:47.031Z,26.26
2023-05-22T17:45:18.762Z,25.94
2023-05-22T17:47:50.464Z,25.85
2023-05-22T17:50:21.981Z,25.91
2023-05-22T17:52:53.727Z,25.75
2023-05-22T17:55:25.224Z,25.69
2023-05-22T17:57:57.297Z,25.41
2023-05-22T18:00:28.819Z,25.30
2023-05-22T18:03:00.671Z,25.23
2023-05-22T18:05:32.353Z,25.20
2023-05-22T18:08:04.210Z,25.16
2023-05-22T18:10:35.681Z,25.05
2023-05-22T18:13:07.571Z,25.06
2023-05-22T18:15:39.131Z,24.98
2023-05-22T18:18:12.974Z,24.90
2023-05-22T18:20:44.945Z,24.79
2023-05-22T18:23:16.481Z,24.69
2023-05-22T18:25:47.999Z,24.58
2023-05-22T18:28:19.525Z,24.50
2023-05-22T18:30:51.049Z,24.46
2023-05-22T18:33:22.541Z,24.35
2023-05-22T18:35:54.250Z,24.22
2023-05-22T18:38:25.763Z,24.14
2023-05-22T18:40:57.468Z,24.05
2023-05-22T18:43:28.949Z,23.93
2023-05-22T18:46:00.464Z,23.78
2023-05-22T18:48:31.944Z,23.67
2023-05-22T18:51:03.872Z,23.47
2023-05-22T18:53:35.364Z,23.39
2023-05-22T18:56:07.495Z,23.30
2023-05-22T18:58:38.996Z,23.23
2023-05-22T19:01:10.496Z,23.06
2023-05-22T19:03:42.153Z,22.94
2023-05-22T19:06:13.643Z,22.83
2023-05-22T19:08:45.517Z,22.73
2023-05-22T19:11:17.004Z,22.70
2023-05-22T19:13:49.103Z,22.61
2023-05-22T19:16:20.638Z,22.53
2023-05-22T19:18:52.405Z,22.44
2023-05-22T19:21:23.906Z,22.38
2023-05-22T19:23:55.921Z,22.34
2023-05-22T19:26:27.540Z,22.27
2023-05-22T19:28:59.023Z,22.22
2023-05-22T19:31:30.935Z,22.13
2023-05-22T19:34:02.479Z,22.13
2023-05-22T19:36:33.975Z,22.08
2023-05-22T19:39:05.502Z,22.02
2023-05-22T19:41:37.015Z,21.95
2023-05-22T19:44:08.516Z,21.93
2023-05-22T19:46:40.054Z,21.89
2023-05-22T19:49:11.592Z,21.58
2023-05-22T19:51:43.450Z,21.74
2023-05-22T19:54:15.311Z,21.73
2023-05-22T19:56:46.957Z,21.67
2023-05-22T19:59:18.824Z,21.58
2023-05-22T20:01:52.837Z,21.54
2023-05-22T20:04:25.452Z,21.48
2023-05-22T20:06:56.946Z,21.44
2023-05-22T20:09:28.634Z,21.40
2023-05-22T20:12:00.149Z,21.34
2023-05-22T20:14:31.971Z,21.28
2023-05-22T20:17:03.468Z,21.21
2023-05-22T20:19:35.076Z,21.19
2023-05-22T20:22:07.014Z,21.10
2023-05-22T20:24:38.591Z,21.07
2023-05-22T20:27:10.416Z,21.02
2023-05-22T20:29:41.936Z,20.97
2023-05-22T20:32:13.961Z,20.92
2023-05-22T20:34:45.549Z,20.85
2023-05-22T20:37:17.489Z,20.77
2023-05-22T20:39:48.985Z,20.76
2023-05-22T20:42:20.797Z,20.72
2023-05-22T20:44:52.352Z,20.64
2023-05-22T20:47:23.849Z,20.57
2023-05-22T20:49:55.365Z,20.53
2023-05-22T20:52:27.293Z,20.51
2023-05-22T20:54:59.151Z,20.41
2023-05-22T20:57:30.664Z,20.35
2023-05-22T21:00:02.357Z,20.23
2023-05-22T21:02:33.928Z,20.20
2023-05-22T21:05:05.461Z,20.17
2023-05-22T21:07:36.960Z,20.18
2023-05-22T21:10:08.508Z,20.13
2023-05-22T21:12:40.012Z,20.09
2023-05-22T21:15:11.860Z,20.07
2023-05-22T21:17:43.392Z,20.03
2023-05-22T21:20:15.461Z,20.03
2023-05-22T21:22:46.994Z,20.01
2023-05-22T21:25:18.549Z,20.01
2023-05-22T21:27:50.357Z,19.98
2023-05-22T21:30:21.846Z,19.96
2023-05-22T21:32:53.700Z,19.90
2023-05-22T21:35:25.228Z,19.89
2023-05-22T21:37:57.132Z,19.83
2023-05-22T21:40:28.637Z,19.84
2023-05-22T21:43:00.509Z,19.79
2023-05-22T21:45:32.006Z,19.80
2023-05-22T21:48:03.725Z,19.75
2023-05-22T21:50:35.328Z,19.70
2023-05-22T21:53:07.094Z,19.66
2023-05-22T21:55:38.726Z,19.64
2023-05-22T21:58:10.692Z,19.59
2023-05-22T22:00:42.546Z,19.57
2023-05-22T22:03:14.100Z,19.53
2023-05-22T22:05:46.212Z,19.56
2023-05-22T22:08:17.699Z,19.51
2023-05-22T22:10:49.861Z,19.47
2023-05-22T22:13:21.356Z,19.47
2023-05-22T22:15:53.117Z,19.46
2023-05-22T22:18:24.614Z,19.44
2023-05-22T22:20:56.310Z,19.46
2023-05-22T22:23:28.025Z,19.48
2023-05-22T22:25:59.812Z,19.43
2023-05-22T22:28:31.700Z,19.38
2023-05-22T22:31:03.203Z,19.40
2023-05-22T22:33:34.708Z,19.39
2023-05-22T22:36:06.209Z,19.39
2023-05-22T22:38:37.700Z,19.38
2023-05-22T22:41:09.212Z,19.32
2023-05-22T22:43:40.758Z,19.34
2023-05-22T22:46:12.302Z,19.36
2023-05-22T22:48:44.149Z,19.33
2023-05-22T22:51:15.642Z,19.28
2023-05-22T22:53:47.185Z,19.29
2023-05-22T22:56:19.055Z,19.28
2023-05-22T22:58:50.901Z,19.27
2023-05-22T23:01:22.745Z,19.25
2023-05-22T23:03:54.264Z,19.24
2023-05-22T23:06:26.075Z,19.19
2023-05-22T23:08:57.568Z,19.15
2023-05-22T23:11:29.217Z,19.15
2023-05-22T23:14:00.721Z,19.09
2023-05-22T23:16:32.582Z,19.09
2023-05-22T23:19:04.163Z,19.04
2023-05-22T23:21:35.722Z,19.01
2023-05-22T23:24:07.530Z,18.98
2023-05-22T23:26:39.052Z,18.93
2023-05-22T23:29:10.854Z,18.90
2023-05-22T23:31:42.424Z,18.87
2023-05-22T23:34:14.334Z,18.79
2023-05-22T23:36:45.849Z,18.77
2023-05-22T23:39:17.582Z,18.70
2023-05-22T23:41:49.090Z,18.70
2023-05-22T23:44:20.903Z,18.68
2023-05-22T23:46:52.417Z,18.70
2023-05-22T23:49:24.204Z,18.67
2023-05-22T23:51:55.682Z,18.64
2023-05-22T23:54:27.465Z,18.60
2023-05-22T23:56:58.946Z,18.59
2023-05-22T23:59:30.775Z,18.61
